createdAt,value
2023-06-23T00:00:10.270Z,1.50
2023-06-23T00:02:36.730Z,2.85
2023-06-23T00:05:04.969Z,1.88
2023-06-23T00:07:31.648Z,1.20
2023-06-23T00:09:58.075Z,4.50
2023-06-23T00:12:25.342Z,4.45
2023-06-23T00:14:51.717Z,4.13
2023-06-23T00:17:18.103Z,2.75
2023-06-23T00:19:44.475Z,3.05
2023-06-23T00:22:10.862Z,1.88
2023-06-23T00:24:37.282Z,3.55
2023-06-23T00:27:04.515Z,4.50
2023-06-23T00:29:31.198Z,2.97
2023-06-23T00:31:57.923Z,2.97
2023-06-23T00:34:24.327Z,1.70
2023-06-23T00:36:50.709Z,5.88
2023-06-23T00:39:17.517Z,2.90
2023-06-23T00:41:43.894Z,2.22
2023-06-23T00:44:11.299Z,3.90
2023-06-23T00:46:37.999Z,4.00
2023-06-23T00:49:04.563Z,2.28
2023-06-23T00:51:31.472Z,4.53
2023-06-23T00:53:59.324Z,2.60
2023-06-23T00:56:26.186Z,5.32
2023-06-23T00:58:54.128Z,3.00
2023-06-23T01:01:21.358Z,2.20
2023-06-23T01:03:47.840Z,2.80
2023-06-23T01:06:21.083Z,3.63
2023-06-23T01:09:02.263Z,2.53
2023-06-23T01:11:43.436Z,6.05
2023-06-23T01:14:22.616Z,1.92
2023-06-23T01:16:59.422Z,3.55
2023-06-23T01:20:19.392Z,1.95
2023-06-23T01:25:47.273Z,2.95
2023-06-23T01:28:25.906Z,3.13
2023-06-23T01:30:54.954Z,7.05
2023-06-23T01:33:24.510Z,3.80
2023-06-23T01:36:01.183Z,2.83
2023-06-23T01:38:37.856Z,3.40
2023-06-23T01:41:09.456Z,3.85
2023-06-23T01:43:38.591Z,3.25
2023-06-23T01:46:12.811Z,3.28
2023-06-23T01:48:42.976Z,4.82
2023-06-23T01:51:10.371Z,5.82
2023-06-23T01:53:38.828Z,5.95
2023-06-23T01:56:08.813Z,8.55
2023-06-23T01:58:38.291Z,4.03
2023-06-23T02:01:06.626Z,3.15
2023-06-23T02:03:35.178Z,2.45
2023-06-23T02:06:03.028Z,4.85
2023-06-23T02:08:31.235Z,5.05
2023-06-23T02:10:58.880Z,3.95
2023-06-23T02:13:27.752Z,5.25
2023-06-23T02:15:56.016Z,5.13
2023-06-23T02:18:23.063Z,8.32
2023-06-23T02:20:51.351Z,5.05
2023-06-23T02:23:18.827Z,5.43
2023-06-23T02:25:46.409Z,5.43
2023-06-23T02:28:13.460Z,7.35
2023-06-23T02:30:41.129Z,5.53
2023-06-23T02:33:07.695Z,6.60
2023-06-23T02:35:35.022Z,4.20
2023-06-23T02:38:04.647Z,6.10
2023-06-23T02:40:34.335Z,4.28
2023-06-23T02:43:26.746Z,8.52
2023-06-23T02:45:56.709Z,8.90
2023-06-23T02:48:29.634Z,3.90
2023-06-23T02:50:58.828Z,5.07
2023-06-23T02:53:31.253Z,5.88
2023-06-23T02:56:04.402Z,6.03
2023-06-23T02:58:32.111Z,5.57
2023-06-23T03:01:02.819Z,5.40
2023-06-23T03:03:29.859Z,6.15
2023-06-23T03:05:57.950Z,5.47
2023-06-23T03:08:26.045Z,5.13
2023-06-23T03:10:52.870Z,5.00
2023-06-23T03:13:19.560Z,7.90
2023-06-23T03:15:49.311Z,5.18
2023-06-23T03:18:21.189Z,6.90
2023-06-23T03:20:50.327Z,6.53
2023-06-23T03:23:18.516Z,10.45
2023-06-23T03:25:49.315Z,7.75
2023-06-23T03:28:20.082Z,5.25
2023-06-23T03:30:54.619Z,7.53
2023-06-23T03:33:29.263Z,5.95
2023-06-23T03:36:01.406Z,8.95
2023-06-23T03:38:32.597Z,5.22
2023-06-23T03:41:03.694Z,8.13
2023-06-23T03:43:40.897Z,5.30
2023-06-23T03:46:17.861Z,7.07
2023-06-23T03:48:46.563Z,6.68
2023-06-23T03:51:17.717Z,5.85
2023-06-23T03:53:47.967Z,5.25
2023-06-23T03:56:16.593Z,9.18
2023-06-23T03:58:44.591Z,5.93
2023-06-23T04:01:11.442Z,6.75
2023-06-23T04:03:40.082Z,6.35
2023-06-23T04:06:10.363Z,7.72
2023-06-23T04:08:39.197Z,5.70
2023-06-23T04:11:09.268Z,5.63
2023-06-23T04:13:38.562Z,5.50
2023-06-23T04:16:07.166Z,9.13
2023-06-23T04:18:36.751Z,7.55
2023-06-23T04:21:05.149Z,5.07
2023-06-23T04:23:33.536Z,5.03
2023-06-23T04:26:02.672Z,5.63
2023-06-23T04:28:31.012Z,7.83
2023-06-23T04:30:59.853Z,4.18
2023-06-23T04:33:27.281Z,6.05
2023-06-23T04:36:11.993Z,5.25
2023-06-23T04:39:01.208Z,6.65
2023-06-23T04:41:28.831Z,5.32
2023-06-23T04:43:59.075Z,6.68
2023-06-23T04:46:28.999Z,4.53
2023-06-23T04:51:30.322Z,4.18
2023-06-23T04:54:08.245Z,5.53
2023-06-23T04:56:37.558Z,4.63
2023-06-23T04:59:08.092Z,4.07
2023-06-23T05:01:35.698Z,7.18
2023-06-23T05:04:04.680Z,3.70
2023-06-23T05:06:34.435Z,4.70
2023-06-23T05:09:01.316Z,5.80
2023-06-23T05:11:28.988Z,8.32
2023-06-23T05:13:57.707Z,4.88
2023-06-23T05:16:25.672Z,4.22
2023-06-23T05:18:54.056Z,2.95
2023-06-23T05:21:24.875Z,4.35
2023-06-23T05:23:54.349Z,5.45
2023-06-23T05:26:22.386Z,3.22
2023-06-23T05:28:50.466Z,2.70
2023-06-23T05:31:18.300Z,4.10
2023-06-23T05:33:47.454Z,3.22
2023-06-23T05:36:15.655Z,2.90
2023-06-23T05:38:44.552Z,4.30
2023-06-23T05:41:11.060Z,2.67
2023-06-23T05:43:39.005Z,2.50
2023-06-23T05:46:15.782Z,3.55
2023-06-23T05:48:54.652Z,4.97
2023-06-23T05:51:26.853Z,2.38
2023-06-23T05:53:57.037Z,3.13
2023-06-23T05:56:45.215Z,6.13
2023-06-23T05:59:25.723Z,4.03
2023-06-23T06:01:58.329Z,2.60
2023-06-23T06:04:29.123Z,1.90
2023-06-23T06:06:57.390Z,3.92
2023-06-23T06:09:27.767Z,1.77
2023-06-23T06:11:55.386Z,3.38
2023-06-23T06:14:23.660Z,1.83
2023-06-23T06:16:52.976Z,2.38
2023-06-23T06:19:25.412Z,1.73
2023-06-23T06:21:55.447Z,2.45
2023-06-23T06:24:25.360Z,1.98
2023-06-23T06:29:24.186Z,2.05
2023-06-23T06:31:52.929Z,8.65
2023-06-23T06:34:21.185Z,2.08
2023-06-23T06:36:49.029Z,2.08
2023-06-23T06:39:16.624Z,1.98
2023-06-23T06:41:44.840Z,1.50
2023-06-23T06:44:11.404Z,1.40
2023-06-23T06:46:40.416Z,1.27
2023-06-23T06:49:09.102Z,2.15
2023-06-23T06:51:37.634Z,2.92
2023-06-23T06:54:04.194Z,2.67
2023-06-23T06:56:31.121Z,2.47
2023-06-23T06:58:57.607Z,3.22
2023-06-23T07:01:25.247Z,1.83
2023-06-23T07:03:53.151Z,3.90
2023-06-23T07:06:19.605Z,2.92
2023-06-23T07:08:46.012Z,1.80
2023-06-23T07:11:14.168Z,2.70
2023-06-23T07:13:40.822Z,1.85
2023-06-23T07:16:07.287Z,2.50
2023-06-23T07:18:33.697Z,2.67
2023-06-23T07:21:01.665Z,3.35
2023-06-23T07:23:28.158Z,2.72
2023-06-23T07:25:54.589Z,2.40
2023-06-23T07:28:21.388Z,1.75
2023-06-23T07:30:47.861Z,2.75
2023-06-23T07:33:14.322Z,1.30
2023-06-23T07:35:40.797Z,3.70
2023-06-23T07:38:07.299Z,2.28
2023-06-23T07:40:34.993Z,1.50
2023-06-23T07:43:01.684Z,1.98
2023-06-23T07:45:28.188Z,1.85
2023-06-23T07:47:54.640Z,2.40
2023-06-23T07:50:21.083Z,2.80
2023-06-23T07:52:53.720Z,2.90
2023-06-23T07:55:20.763Z,2.05
2023-06-23T07:57:47.930Z,2.95
2023-06-23T08:00:14.825Z,1.10
2023-06-23T08:02:42.867Z,2.10
2023-06-23T08:05:11.091Z,3.53
2023-06-23T08:07:37.622Z,2.35
2023-06-23T08:10:04.374Z,3.00
2023-06-23T08:12:30.742Z,3.53
2023-06-23T08:14:57.149Z,1.92
2023-06-23T08:17:23.618Z,2.95
2023-06-23T08:19:50.075Z,2.70
2023-06-23T08:22:17.198Z,2.20
2023-06-23T08:24:43.713Z,1.67
2023-06-23T08:27:10.143Z,1.83
2023-06-23T08:29:38.365Z,3.17
2023-06-23T08:32:05.243Z,1.90
2023-06-23T08:34:31.737Z,1.52
2023-06-23T08:36:58.122Z,2.35
2023-06-23T08:39:25.262Z,2.42
2023-06-23T08:41:51.899Z,2.63
2023-06-23T08:44:20.068Z,1.98
2023-06-23T08:47:04.979Z,1.70
2023-06-23T08:49:35.329Z,2.28
2023-06-23T08:52:02.934Z,2.38
2023-06-23T08:54:30.743Z,1.90
2023-06-23T08:56:58.436Z,2.35
2023-06-23T08:59:24.848Z,2.10
2023-06-23T09:01:51.645Z,1.98
2023-06-23T09:04:18.318Z,2.75
2023-06-23T09:06:44.767Z,4.40
2023-06-23T09:09:11.325Z,3.97
2023-06-23T09:11:37.800Z,3.60
2023-06-23T09:14:07.270Z,3.92
2023-06-23T09:16:33.853Z,4.85
2023-06-23T09:19:02.960Z,3.35
2023-06-23T09:21:30.084Z,3.53
2023-06-23T09:24:04.472Z,4.20
2023-06-23T09:26:43.400Z,3.08
2023-06-23T09:29:16.766Z,2.45
2023-06-23T09:31:43.599Z,3.00
2023-06-23T09:34:10.347Z,2.95
2023-06-23T09:36:38.159Z,3.17
2023-06-23T09:39:05.183Z,2.72
2023-06-23T09:41:47.606Z,2.72
2023-06-23T09:44:18.020Z,2.97
2023-06-23T09:46:44.400Z,2.50
2023-06-23T09:49:10.925Z,2.17
2023-06-23T09:51:38.728Z,2.88
2023-06-23T09:54:05.226Z,2.35
2023-06-23T09:56:31.737Z,3.58
2023-06-23T09:58:58.573Z,2.80
2023-06-23T10:01:25.027Z,3.05
2023-06-23T10:03:56.387Z,2.28
2023-06-23T10:06:29.751Z,2.05
2023-06-23T10:08:58.465Z,2.88
2023-06-23T10:11:43.305Z,2.97
2023-06-23T10:14:12.514Z,3.45
2023-06-23T10:16:47.150Z,1.20
2023-06-23T10:19:14.262Z,2.53
2023-06-23T10:21:41.970Z,1.83
2023-06-23T10:24:20.199Z,2.15
2023-06-23T10:26:48.307Z,1.67
2023-06-23T10:29:15.912Z,3.25
2023-06-23T10:31:43.525Z,1.77
2023-06-23T10:34:14.798Z,1.75
2023-06-23T10:36:43.778Z,2.65
2023-06-23T10:39:11.881Z,1.65
2023-06-23T10:41:41.241Z,2.20
2023-06-23T10:44:09.424Z,1.88
2023-06-23T10:46:36.935Z,3.35
2023-06-23T10:49:05.996Z,2.83
2023-06-23T10:51:33.388Z,3.53
2023-06-23T10:54:01.974Z,3.55
2023-06-23T10:56:32.360Z,2.70
2023-06-23T10:58:58.891Z,3.03
2023-06-23T11:01:27.454Z,2.80
2023-06-23T11:03:59.039Z,3.78
2023-06-23T11:06:37.087Z,3.00
2023-06-23T11:09:03.705Z,3.30
2023-06-23T11:11:35.128Z,4.15
2023-06-23T11:14:01.926Z,5.18
2023-06-23T11:16:35.753Z,2.97
2023-06-23T11:19:05.702Z,2.90
2023-06-23T11:21:38.355Z,2.80
2023-06-23T11:24:21.838Z,4.15
2023-06-23T11:27:04.017Z,4.65
2023-06-23T11:29:32.988Z,7.60
2023-06-23T11:32:12.649Z,3.22
2023-06-23T11:34:57.314Z,4.53
2023-06-23T11:37:26.913Z,2.78
2023-06-23T11:39:57.746Z,3.78
2023-06-23T11:42:24.746Z,4.18
2023-06-23T11:44:51.445Z,3.78
2023-06-23T11:47:33.592Z,4.90
2023-06-23T11:50:04.629Z,3.58
2023-06-23T11:52:31.487Z,3.67
2023-06-23T11:54:58.044Z,4.43
2023-06-23T11:57:25.616Z,3.80
2023-06-23T11:59:53.465Z,4.47
2023-06-23T12:02:21.409Z,2.95
2023-06-23T12:04:50.278Z,3.15
2023-06-23T12:07:17.162Z,3.58
2023-06-23T12:09:43.671Z,4.78
2023-06-23T12:12:15.604Z,3.80
2023-06-23T12:14:44.769Z,6.00
2023-06-23T12:17:13.403Z,4.20
2023-06-23T12:19:42.584Z,4.90
2023-06-23T12:22:19.724Z,3.60
2023-06-23T12:24:47.045Z,4.30
2023-06-23T12:27:13.553Z,5.43
2023-06-23T12:29:40.066Z,6.47
2023-06-23T12:32:06.935Z,6.18
2023-06-23T12:34:42.181Z,4.25
2023-06-23T12:37:17.315Z,8.57
2023-06-23T12:39:55.700Z,3.63
2023-06-23T12:42:24.062Z,3.95
2023-06-23T12:44:51.092Z,5.40
2023-06-23T12:47:18.893Z,5.65
2023-06-23T12:49:45.394Z,3.80
2023-06-23T12:52:12.857Z,5.32
2023-06-23T12:54:39.533Z,5.25
2023-06-23T12:57:06.200Z,3.88
2023-06-23T12:59:32.640Z,5.43
2023-06-23T13:02:02.263Z,4.00
2023-06-23T13:04:28.792Z,5.78
2023-06-23T13:06:55.409Z,4.82
2023-06-23T13:09:21.789Z,5.28
2023-06-23T13:11:48.225Z,7.25
2023-06-23T13:14:14.646Z,6.75
2023-06-23T13:16:41.894Z,5.47
2023-06-23T13:19:08.783Z,5.65
2023-06-23T13:21:35.945Z,5.82
2023-06-23T13:24:02.391Z,4.22
2023-06-23T13:26:28.832Z,6.40
2023-06-23T13:28:55.410Z,7.03
2023-06-23T13:31:21.877Z,4.68
2023-06-23T13:33:48.339Z,6.78
2023-06-23T13:36:14.908Z,7.90
2023-06-23T13:38:42.573Z,5.85
2023-06-23T13:41:09.995Z,7.03
2023-06-23T13:43:36.461Z,6.70
2023-06-23T13:46:02.884Z,7.28
2023-06-23T13:48:29.326Z,6.43
2023-06-23T13:50:55.727Z,8.25
2023-06-23T13:53:22.573Z,6.75
2023-06-23T13:55:48.965Z,9.20
2023-06-23T13:58:15.379Z,7.38
2023-06-23T14:00:41.890Z,7.10
2023-06-23T14:03:08.488Z,7.20
2023-06-23T14:05:51.708Z,6.40
2023-06-23T14:08:19.344Z,8.27
2023-06-23T14:10:45.753Z,7.25
2023-06-23T14:13:12.683Z,6.82
2023-06-23T14:15:39.233Z,7.68
2023-06-23T14:18:05.778Z,8.48
2023-06-23T14:20:32.226Z,8.82
2023-06-23T14:22:58.716Z,9.00
2023-06-23T14:25:25.159Z,7.63
2023-06-23T14:27:51.646Z,8.18
2023-06-23T14:30:18.187Z,7.68
2023-06-23T14:32:49.791Z,10.43
2023-06-23T14:35:19.322Z,7.95
2023-06-23T14:37:45.929Z,9.02
2023-06-23T14:40:12.486Z,7.43
2023-06-23T14:42:41.214Z,8.98
2023-06-23T14:45:08.918Z,11.40
2023-06-23T14:47:37.768Z,9.32
2023-06-23T14:50:05.436Z,8.90
2023-06-23T14:52:31.823Z,8.13
2023-06-23T14:54:58.930Z,6.35
2023-06-23T14:57:25.333Z,10.23
2023-06-23T14:59:51.732Z,10.40
2023-06-23T15:02:18.184Z,9.48
2023-06-23T15:04:44.603Z,8.10
2023-06-23T15:07:11.107Z,9.32
2023-06-23T15:09:37.717Z,9.75
2023-06-23T15:12:04.526Z,9.00
2023-06-23T15:14:30.909Z,8.00
2023-06-23T15:16:57.304Z,9.00
2023-06-23T15:19:23.740Z,10.68
2023-06-23T15:21:52.640Z,7.95
2023-06-23T15:24:19.489Z,11.00
2023-06-23T15:26:46.407Z,9.68
2023-06-23T15:29:13.131Z,9.02
2023-06-23T15:31:39.581Z,10.15
2023-06-23T15:34:07.373Z,7.90
2023-06-23T15:36:34.351Z,7.45
2023-06-23T15:39:00.908Z,8.80
2023-06-23T15:41:27.350Z,8.45
2023-06-23T15:43:53.725Z,9.02
2023-06-23T15:46:20.116Z,7.30
2023-06-23T15:48:46.668Z,6.43
2023-06-23T15:51:13.149Z,6.70
2023-06-23T15:53:39.609Z,5.53
2023-06-23T15:56:06.170Z,6.75
2023-06-23T15:58:32.618Z,7.45
2023-06-23T16:00:59.003Z,4.68
2023-06-23T16:03:25.652Z,6.40
2023-06-23T16:05:52.288Z,6.75
2023-06-23T16:08:18.786Z,6.30
2023-06-23T16:10:45.594Z,6.45
2023-06-23T16:13:12.020Z,5.60
2023-06-23T16:15:38.661Z,4.53
2023-06-23T16:18:05.117Z,6.63
2023-06-23T16:20:31.841Z,6.10
2023-06-23T16:22:58.222Z,4.97
2023-06-23T16:25:24.779Z,8.65
2023-06-23T16:27:51.277Z,10.05
2023-06-23T16:30:17.687Z,6.30
2023-06-23T16:32:44.146Z,4.95
2023-06-23T16:35:10.636Z,5.72
2023-06-23T16:37:37.382Z,7.18
2023-06-23T16:40:04.301Z,6.03
2023-06-23T16:42:30.768Z,5.80
2023-06-23T16:44:57.157Z,4.20
2023-06-23T16:47:23.684Z,4.95
2023-06-23T16:49:51.679Z,7.75
2023-06-23T16:52:18.407Z,5.25
2023-06-23T16:54:44.808Z,5.35
2023-06-23T16:57:13.408Z,5.38
2023-06-23T16:59:39.814Z,5.95
2023-06-23T17:02:07.458Z,7.28
2023-06-23T17:04:33.974Z,6.63
2023-06-23T17:07:00.608Z,7.25
2023-06-23T17:09:27.696Z,6.07
2023-06-23T17:12:07.971Z,6.70
2023-06-23T17:14:38.858Z,5.95
2023-06-23T17:17:05.467Z,6.18
2023-06-23T17:19:31.873Z,4.97
2023-06-23T17:21:58.318Z,7.18
2023-06-23T17:24:24.839Z,7.07
2023-06-23T17:26:51.385Z,6.00
2023-06-23T17:29:17.873Z,10.25
2023-06-23T17:31:46.371Z,6.25
2023-06-23T17:36:40.850Z,5.43
2023-06-23T17:39:07.323Z,7.68
2023-06-23T17:41:34.694Z,8.00
2023-06-23T17:44:01.189Z,5.80
2023-06-23T17:46:27.826Z,5.43
2023-06-23T17:48:54.311Z,6.25
2023-06-23T17:51:20.838Z,5.18
2023-06-23T17:53:48.451Z,9.73
2023-06-23T17:56:15.603Z,5.75
2023-06-23T17:58:43.169Z,5.38
2023-06-23T18:01:09.772Z,5.00
2023-06-23T18:03:36.493Z,4.95
2023-06-23T18:06:03.127Z,4.88
2023-06-23T18:08:29.526Z,6.88
2023-06-23T18:10:56.651Z,4.50
2023-06-23T18:13:23.072Z,6.90
2023-06-23T18:15:49.464Z,5.55
2023-06-23T18:18:16.018Z,8.20
2023-06-23T18:20:42.457Z,8.23
2023-06-23T18:23:08.877Z,5.40
2023-06-23T18:25:35.321Z,5.43
2023-06-23T18:28:01.770Z,4.50
2023-06-23T18:30:28.255Z,5.72
2023-06-23T18:32:54.747Z,6.13
2023-06-23T18:35:21.234Z,5.95
2023-06-23T18:37:47.638Z,4.43
2023-06-23T18:40:14.231Z,6.63
2023-06-23T18:42:41.989Z,7.03
2023-06-23T18:45:13.124Z,7.20
2023-06-23T18:47:39.984Z,6.72
2023-06-23T18:50:06.988Z,6.25
2023-06-23T18:52:33.508Z,9.88
2023-06-23T18:55:00.169Z,4.70
2023-06-23T18:57:26.732Z,6.38
2023-06-23T18:59:53.800Z,6.13
2023-06-23T19:02:21.908Z,5.45
2023-06-23T19:04:48.959Z,4.47
2023-06-23T19:07:15.354Z,5.88
2023-06-23T19:09:42.444Z,5.30
2023-06-23T19:12:10.095Z,5.85
2023-06-23T19:14:38.450Z,9.30
2023-06-23T19:17:07.484Z,5.90
2023-06-23T19:19:34.952Z,4.82
2023-06-23T19:22:01.710Z,6.18
2023-06-23T19:24:28.161Z,7.03
2023-06-23T19:26:54.590Z,5.78
2023-06-23T19:29:21.113Z,5.35
2023-06-23T19:31:47.598Z,5.28
2023-06-23T19:34:14.542Z,5.78
2023-06-23T19:36:41.051Z,4.85
2023-06-23T19:39:07.636Z,9.15
2023-06-23T19:41:34.049Z,5.15
2023-06-23T19:44:00.466Z,5.32
2023-06-23T19:46:26.938Z,5.72
2023-06-23T19:48:55.389Z,10.95
2023-06-23T19:51:22.703Z,4.93
2023-06-23T19:53:49.850Z,7.07
2023-06-23T19:56:16.378Z,5.18
2023-06-23T19:58:44.080Z,6.43
2023-06-23T20:01:10.498Z,5.43
2023-06-23T20:03:36.898Z,6.50
2023-06-23T20:06:03.623Z,5.22
2023-06-23T20:08:30.057Z,4.38
2023-06-23T20:10:56.414Z,7.95
2023-06-23T20:13:22.804Z,6.72
2023-06-23T20:15:52.236Z,4.13
2023-06-23T20:18:18.965Z,5.28
2023-06-23T20:20:45.501Z,5.15
2023-06-23T20:23:11.913Z,3.67
2023-06-23T20:25:38.667Z,4.47
2023-06-23T20:28:05.212Z,6.72
2023-06-23T20:30:31.980Z,2.25
2023-06-23T20:32:58.605Z,3.30
2023-06-23T20:35:25.112Z,4.97
2023-06-23T20:37:51.915Z,2.30
2023-06-23T20:40:19.950Z,2.65
2023-06-23T20:42:46.490Z,4.85
2023-06-23T20:45:12.990Z,2.92
2023-06-23T20:47:39.530Z,2.17
2023-06-23T20:50:09.156Z,1.60
2023-06-23T20:52:35.576Z,2.97
2023-06-23T20:55:02.016Z,2.33
2023-06-23T20:57:28.469Z,3.05
2023-06-23T20:59:54.834Z,4.93
2023-06-23T21:02:21.247Z,1.80
2023-06-23T21:04:47.657Z,8.27
2023-06-23T21:07:14.167Z,3.75
2023-06-23T21:09:40.918Z,1.92
2023-06-23T21:12:09.268Z,3.25
2023-06-23T21:14:37.148Z,2.20
2023-06-23T21:17:04.152Z,5.93
2023-06-23T21:19:31.813Z,3.63
2023-06-23T21:21:58.204Z,2.33
2023-06-23T21:24:25.138Z,2.47
2023-06-23T21:26:51.740Z,2.30
2023-06-23T21:29:18.369Z,4.32
2023-06-23T21:31:45.461Z,2.63
2023-06-23T21:34:11.974Z,1.77
2023-06-23T21:36:38.402Z,1.73
2023-06-23T21:39:04.907Z,4.88
2023-06-23T21:41:31.311Z,3.15
2023-06-23T21:43:57.711Z,5.22
2023-06-23T21:46:24.157Z,2.58
2023-06-23T21:48:55.252Z,3.47
2023-06-23T21:51:23.996Z,4.38
2023-06-23T21:53:50.534Z,7.47
2023-06-23T21:56:16.925Z,4.15
2023-06-23T21:58:43.438Z,3.70
2023-06-23T22:01:10.818Z,3.28
2023-06-23T22:03:37.924Z,4.60
2023-06-23T22:06:05.686Z,4.05
2023-06-23T22:08:32.682Z,7.05
2023-06-23T22:10:59.589Z,4.38
2023-06-23T22:13:26.977Z,4.80
2023-06-23T22:15:53.487Z,6.93
2023-06-23T22:18:41.368Z,5.95
2023-06-23T22:21:06.774Z,3.17
2023-06-23T22:23:33.338Z,5.35
2023-06-23T22:25:59.745Z,3.67
2023-06-23T22:28:26.245Z,3.33
2023-06-23T22:30:53.141Z,3.70
2023-06-23T22:33:19.577Z,3.42
2023-06-23T22:35:46.491Z,3.90
2023-06-23T22:38:14.125Z,5.63
2023-06-23T22:40:40.674Z,5.35
2023-06-23T22:43:07.125Z,4.32
2023-06-23T22:45:34.530Z,4.05
2023-06-23T22:48:01.061Z,3.83
2023-06-23T22:50:27.466Z,3.88
2023-06-23T22:52:53.855Z,6.38
2023-06-23T22:55:20.659Z,3.72
2023-06-23T22:57:47.104Z,2.50
2023-06-23T23:00:13.920Z,3.28
2023-06-23T23:02:40.324Z,3.03
2023-06-23T23:05:07.527Z,5.00
2023-06-23T23:07:33.981Z,2.28
2023-06-23T23:10:01.246Z,4.30
2023-06-23T23:12:27.610Z,8.70
2023-06-23T23:14:54.798Z,3.45
2023-06-23T23:17:21.234Z,4.00
2023-06-23T23:19:48.377Z,3.20
2023-06-23T23:22:17.753Z,7.15
2023-06-23T23:24:44.289Z,3.28
2023-06-23T23:27:14.375Z,5.00
2023-06-23T23:29:41.642Z,3.25
2023-06-23T23:32:08.471Z,2.83
2023-06-23T23:34:35.938Z,3.47
2023-06-23T23:37:05.133Z,2.35
2023-06-23T23:39:31.895Z,2.47
2023-06-23T23:41:58.359Z,3.30
2023-06-23T23:44:24.987Z,2.97
2023-06-23T23:46:51.723Z,3.70
2023-06-23T23:49:18.217Z,4.43
2023-06-23T23:51:44.678Z,2.78
2023-06-23T23:54:11.890Z,2.88
2023-06-23T23:56:38.517Z,3.72
2023-06-23T23:59:05.128Z,3.85
